This is the latest recevied weather packets stored in our database for station/object SP3WRO-13. If no packets are shown the sender has not sent any weather packets the latest 10 day(s).
| Time | Temp. | Humidity | Pressure | Rain* | Wind** | Luminosity | Snow |
|---|---|---|---|---|---|---|---|
| 1777210102 | 12.78° C | 23% | 1019.1 hPa | - | - | 554 W/m² | - |
| 1777209202 | 12.78° C | 24% | 1019.2 hPa | - | - | 580 W/m² | - |
| 1777208302 | 12.78° C | 25% | 1019.3 hPa | - | - | 605 W/m² | - |
| 1777207402 | 11.67° C | 25% | 1019.1 hPa | - | - | 630 W/m² | - |
| 1777206502 | 12.78° C | 26% | 1019.2 hPa | - | - | 663 W/m² | - |
| 1777205602 | 11.67° C | 24% | 1019.3 hPa | - | - | 685 W/m² | - |
| 1777204702 | 11.67° C | 25% | 1019.3 hPa | - | - | 702 W/m² | - |
| 1777203802 | 12.22° C | 25% | 1019.3 hPa | - | - | 712 W/m² | - |
| 1777202902 | 12.22° C | 25% | 1019.4 hPa | - | - | 722 W/m² | - |
| 1777202001 | 11.11° C | 27% | 1019.4 hPa | - | - | 736 W/m² | - |
| 1777201101 | 11.11° C | 30% | 1019.3 hPa | - | - | 735 W/m² | - |
| 1777200201 | 10.56° C | 30% | 1019.3 hPa | - | - | 737 W/m² | - |
| 1777199301 | 10.56° C | 31% | 1019.2 hPa | - | - | 732 W/m² | - |
| 1777198401 | 10.56° C | 30% | 1019.1 hPa | - | - | 721 W/m² | - |
| 1777197501 | 11.11° C | 33% | 1019.1 hPa | - | - | 711 W/m² | - |
| 1777196601 | 10.56° C | 33% | 1018.9 hPa | - | - | 697 W/m² | - |
| 1777195701 | 10° C | 34% | 1018.8 hPa | - | - | 684 W/m² | - |
| 1777194801 | 10.56° C | 38% | 1018.6 hPa | - | - | 678 W/m² | - |
| 1777193901 | 10.56° C | 36% | 1018.4 hPa | - | - | 662 W/m² | - |
| 1777193001 | 10° C | 39% | 1018.2 hPa | - | - | 633 W/m² | - |
| 1777192100 | 9.44° C | 44% | 1018.1 hPa | - | - | 620 W/m² | - |
| 1777191200 | 9.44° C | 40% | 1018.1 hPa | - | - | 567 W/m² | - |
| 1777190300 | 9.44° C | 47% | 1017.8 hPa | - | - | 546 W/m² | - |
| 1777189400 | 8.33° C | 55% | 1017.5 hPa | - | - | 523 W/m² | - |
| 1777188500 | 8.33° C | 58% | 1017.4 hPa | - | - | 462 W/m² | - |
* Rain since midnight (hover to see other rain measurements)
** Current wind speed in m/s (hover to see current wind gust speed)